sensor_id;sensor_type;location;lat;lon;timestamp;P1;durP1;ratioP1;P2;durP2;ratioP2
18100;SDS011;9177;49.156;8.142;2022-10-31T00:00:05;4.03;;;3.40;;
18100;SDS011;9177;49.156;8.142;2022-10-31T00:02:33;3.33;;;3.03;;
18100;SDS011;9177;49.156;8.142;2022-10-31T00:05:00;3.73;;;3.23;;
18100;SDS011;9177;49.156;8.142;2022-10-31T00:07:27;3.97;;;2.97;;
18100;SDS011;9177;49.156;8.142;2022-10-31T00:09:55;3.43;;;3.07;;
18100;SDS011;9177;49.156;8.142;2022-10-31T00:12:25;3.23;;;2.93;;
18100;SDS011;9177;49.156;8.142;2022-10-31T00:14:52;3.47;;;3.17;;
18100;SDS011;9177;49.156;8.142;2022-10-31T00:17:19;3.50;;;3.17;;
18100;SDS011;9177;49.156;8.142;2022-10-31T00:19:46;4.03;;;3.40;;
18100;SDS011;9177;49.156;8.142;2022-10-31T00:22:13;3.50;;;3.20;;
18100;SDS011;9177;49.156;8.142;2022-10-31T00:24:40;5.30;;;3.10;;
18100;SDS011;9177;49.156;8.142;2022-10-31T00:27:08;3.40;;;3.10;;
18100;SDS011;9177;49.156;8.142;2022-10-31T00:29:35;3.40;;;3.07;;
18100;SDS011;9177;49.156;8.142;2022-10-31T00:32:02;2.80;;;2.60;;
18100;SDS011;9177;49.156;8.142;2022-10-31T00:34:28;3.97;;;3.23;;
18100;SDS011;9177;49.156;8.142;2022-10-31T00:36:55;4.50;;;2.87;;
18100;SDS011;9177;49.156;8.142;2022-10-31T00:39:22;4.23;;;3.20;;
18100;SDS011;9177;49.156;8.142;2022-10-31T00:41:49;3.47;;;3.00;;
18100;SDS011;9177;49.156;8.142;2022-10-31T00:44:17;5.17;;;3.17;;
18100;SDS011;9177;49.156;8.142;2022-10-31T00:46:44;2.90;;;2.70;;
18100;SDS011;9177;49.156;8.142;2022-10-31T00:49:11;3.03;;;2.70;;
18100;SDS011;9177;49.156;8.142;2022-10-31T00:51:38;3.63;;;3.23;;
18100;SDS011;9177;49.156;8.142;2022-10-31T00:54:05;3.47;;;2.70;;
18100;SDS011;9177;49.156;8.142;2022-10-31T00:56:31;4.50;;;3.27;;
18100;SDS011;9177;49.156;8.142;2022-10-31T00:58:59;4.33;;;3.00;;
18100;SDS011;9177;49.156;8.142;2022-10-31T01:01:27;3.40;;;3.00;;
18100;SDS011;9177;49.156;8.142;2022-10-31T01:03:54;3.47;;;2.80;;
18100;SDS011;9177;49.156;8.142;2022-10-31T01:06:21;4.60;;;3.10;;
18100;SDS011;9177;49.156;8.142;2022-10-31T01:08:48;3.20;;;2.90;;
18100;SDS011;9177;49.156;8.142;2022-10-31T01:11:16;3.00;;;2.70;;
18100;SDS011;9177;49.156;8.142;2022-10-31T01:13:44;3.67;;;3.00;;
18100;SDS011;9177;49.156;8.142;2022-10-31T01:16:13;3.20;;;2.90;;
18100;SDS011;9177;49.156;8.142;2022-10-31T01:18:42;3.77;;;2.53;;
18100;SDS011;9177;49.156;8.142;2022-10-31T01:21:11;3.60;;;3.00;;
18100;SDS011;9177;49.156;8.142;2022-10-31T01:23:43;3.20;;;2.90;;
18100;SDS011;9177;49.156;8.142;2022-10-31T01:26:10;3.33;;;3.03;;
18100;SDS011;9177;49.156;8.142;2022-10-31T01:28:42;3.80;;;3.23;;
18100;SDS011;9177;49.156;8.142;2022-10-31T01:31:11;3.10;;;2.73;;
18100;SDS011;9177;49.156;8.142;2022-10-31T01:33:38;5.30;;;3.00;;
18100;SDS011;9177;49.156;8.142;2022-10-31T01:36:16;4.80;;;2.77;;
18100;SDS011;9177;49.156;8.142;2022-10-31T01:38:45;3.13;;;2.67;;
18100;SDS011;9177;49.156;8.142;2022-10-31T01:41:13;3.10;;;2.80;;
18100;SDS011;9177;49.156;8.142;2022-10-31T01:43:44;4.27;;;2.97;;
18100;SDS011;9177;49.156;8.142;2022-10-31T01:46:12;3.20;;;2.67;;
18100;SDS011;9177;49.156;8.142;2022-10-31T01:48:42;3.00;;;2.67;;
18100;SDS011;9177;49.156;8.142;2022-10-31T01:51:09;3.43;;;2.67;;
18100;SDS011;9177;49.156;8.142;2022-10-31T01:53:40;3.53;;;2.93;;
18100;SDS011;9177;49.156;8.142;2022-10-31T01:56:09;3.67;;;2.87;;
18100;SDS011;9177;49.156;8.142;2022-10-31T01:58:36;3.57;;;2.43;;
18100;SDS011;9177;49.156;8.142;2022-10-31T02:01:03;3.43;;;2.93;;
18100;SDS011;9177;49.156;8.142;2022-10-31T02:03:30;3.20;;;2.90;;
18100;SDS011;9177;49.156;8.142;2022-10-31T02:05:59;3.30;;;2.80;;
18100;SDS011;9177;49.156;8.142;2022-10-31T02:08:26;3.00;;;2.60;;
18100;SDS011;9177;49.156;8.142;2022-10-31T02:10:56;3.23;;;2.40;;
18100;SDS011;9177;49.156;8.142;2022-10-31T02:13:24;3.30;;;2.97;;
18100;SDS011;9177;49.156;8.142;2022-10-31T02:15:52;3.57;;;2.50;;
18100;SDS011;9177;49.156;8.142;2022-10-31T02:18:20;3.90;;;2.67;;
18100;SDS011;9177;49.156;8.142;2022-10-31T02:20:51;3.20;;;2.90;;
18100;SDS011;9177;49.156;8.142;2022-10-31T02:23:40;3.30;;;3.00;;
18100;SDS011;9177;49.156;8.142;2022-10-31T02:26:41;4.23;;;2.73;;
18100;SDS011;9177;49.156;8.142;2022-10-31T02:29:32;2.40;;;2.20;;
18100;SDS011;9177;49.156;8.142;2022-10-31T02:32:18;3.73;;;2.60;;
18100;SDS011;9177;49.156;8.142;2022-10-31T02:34:52;3.90;;;2.50;;
18100;SDS011;9177;49.156;8.142;2022-10-31T02:37:25;3.10;;;2.53;;
18100;SDS011;9177;49.156;8.142;2022-10-31T02:39:59;2.83;;;2.50;;
18100;SDS011;9177;49.156;8.142;2022-10-31T02:42:38;3.67;;;2.70;;
18100;SDS011;9177;49.156;8.142;2022-10-31T02:45:10;3.60;;;2.60;;
18100;SDS011;9177;49.156;8.142;2022-10-31T02:47:42;2.37;;;2.17;;
18100;SDS011;9177;49.156;8.142;2022-10-31T02:50:12;2.87;;;2.40;;
18100;SDS011;9177;49.156;8.142;2022-10-31T02:52:41;3.43;;;2.37;;
18100;SDS011;9177;49.156;8.142;2022-10-31T02:55:12;3.57;;;2.77;;
18100;SDS011;9177;49.156;8.142;2022-10-31T02:58:00;3.47;;;2.60;;
18100;SDS011;9177;49.156;8.142;2022-10-31T03:00:30;4.03;;;2.53;;
18100;SDS011;9177;49.156;8.142;2022-10-31T03:03:10;3.10;;;2.67;;
18100;SDS011;9177;49.156;8.142;2022-10-31T03:05:44;2.50;;;2.30;;
18100;SDS011;9177;49.156;8.142;2022-10-31T03:08:21;3.23;;;2.73;;
18100;SDS011;9177;49.156;8.142;2022-10-31T03:10:55;3.83;;;2.43;;
18100;SDS011;9177;49.156;8.142;2022-10-31T03:13:27;4.63;;;2.40;;
18100;SDS011;9177;49.156;8.142;2022-10-31T03:16:02;3.03;;;2.60;;
18100;SDS011;9177;49.156;8.142;2022-10-31T03:18:34;3.20;;;2.37;;
18100;SDS011;9177;49.156;8.142;2022-10-31T03:21:07;3.17;;;2.80;;
18100;SDS011;9177;49.156;8.142;2022-10-31T03:23:37;2.47;;;2.23;;
18100;SDS011;9177;49.156;8.142;2022-10-31T03:26:06;2.83;;;2.50;;
18100;SDS011;9177;49.156;8.142;2022-10-31T03:28:36;2.60;;;2.40;;
18100;SDS011;9177;49.156;8.142;2022-10-31T03:31:07;2.40;;;2.20;;
18100;SDS011;9177;49.156;8.142;2022-10-31T03:33:38;3.20;;;2.50;;
18100;SDS011;9177;49.156;8.142;2022-10-31T03:36:07;5.47;;;2.70;;
18100;SDS011;9177;49.156;8.142;2022-10-31T03:38:35;2.40;;;2.20;;
18100;SDS011;9177;49.156;8.142;2022-10-31T03:41:05;3.27;;;2.50;;
18100;SDS011;9177;49.156;8.142;2022-10-31T03:43:42;3.13;;;2.53;;
18100;SDS011;9177;49.156;8.142;2022-10-31T03:46:14;4.37;;;2.70;;
18100;SDS011;9177;49.156;8.142;2022-10-31T03:48:46;3.17;;;2.23;;
18100;SDS011;9177;49.156;8.142;2022-10-31T03:51:14;2.80;;;2.60;;
18100;SDS011;9177;49.156;8.142;2022-10-31T03:53:47;2.73;;;2.13;;
18100;SDS011;9177;49.156;8.142;2022-10-31T03:56:23;3.37;;;2.30;;
18100;SDS011;9177;49.156;8.142;2022-10-31T03:58:57;2.53;;;2.20;;
18100;SDS011;9177;49.156;8.142;2022-10-31T04:01:26;2.83;;;2.00;;
18100;SDS011;9177;49.156;8.142;2022-10-31T04:03:57;3.47;;;2.23;;
18100;SDS011;9177;49.156;8.142;2022-10-31T04:06:28;3.83;;;2.30;;
18100;SDS011;9177;49.156;8.142;2022-10-31T04:08:58;3.77;;;2.40;;
18100;SDS011;9177;49.156;8.142;2022-10-31T04:11:28;4.70;;;2.60;;
18100;SDS011;9177;49.156;8.142;2022-10-31T04:13:57;2.20;;;1.95;;
18100;SDS011;9177;49.156;8.142;2022-10-31T04:16:26;2.95;;;2.45;;
18100;SDS011;9177;49.156;8.142;2022-10-31T04:18:53;2.97;;;2.30;;
18100;SDS011;9177;49.156;8.142;2022-10-31T04:21:25;2.92;;;2.45;;
18100;SDS011;9177;49.156;8.142;2022-10-31T04:23:54;3.15;;;2.22;;
18100;SDS011;9177;49.156;8.142;2022-10-31T04:26:21;2.87;;;2.27;;
18100;SDS011;9177;49.156;8.142;2022-10-31T04:28:48;3.03;;;2.20;;
18100;SDS011;9177;49.156;8.142;2022-10-31T04:31:15;2.20;;;2.00;;
18100;SDS011;9177;49.156;8.142;2022-10-31T04:33:42;2.30;;;2.10;;
18100;SDS011;9177;49.156;8.142;2022-10-31T04:36:09;3.45;;;2.40;;
18100;SDS011;9177;49.156;8.142;2022-10-31T04:38:37;2.80;;;2.15;;
18100;SDS011;9177;49.156;8.142;2022-10-31T04:41:04;2.30;;;2.10;;
18100;SDS011;9177;49.156;8.142;2022-10-31T04:43:31;2.25;;;2.05;;
18100;SDS011;9177;49.156;8.142;2022-10-31T04:45:58;2.40;;;2.20;;
18100;SDS011;9177;49.156;8.142;2022-10-31T04:48:24;2.45;;;2.17;;
18100;SDS011;9177;49.156;8.142;2022-10-31T04:50:51;2.57;;;2.20;;
18100;SDS011;9177;49.156;8.142;2022-10-31T04:53:18;3.17;;;1.98;;
18100;SDS011;9177;49.156;8.142;2022-10-31T04:55:46;2.43;;;2.20;;
18100;SDS011;9177;49.156;8.142;2022-10-31T04:58:13;2.80;;;2.50;;
18100;SDS011;9177;49.156;8.142;2022-10-31T05:00:40;2.60;;;2.23;;
18100;SDS011;9177;49.156;8.142;2022-10-31T05:03:07;2.63;;;2.43;;
18100;SDS011;9177;49.156;8.142;2022-10-31T05:05:33;2.43;;;2.23;;
18100;SDS011;9177;49.156;8.142;2022-10-31T05:08:00;2.30;;;2.10;;
18100;SDS011;9177;49.156;8.142;2022-10-31T05:10:28;2.57;;;2.37;;
18100;SDS011;9177;49.156;8.142;2022-10-31T05:12:57;2.40;;;2.20;;
18100;SDS011;9177;49.156;8.142;2022-10-31T05:15:26;2.33;;;2.10;;
18100;SDS011;9177;49.156;8.142;2022-10-31T05:17:54;3.37;;;2.40;;
18100;SDS011;9177;49.156;8.142;2022-10-31T05:20:22;2.47;;;1.90;;
18100;SDS011;9177;49.156;8.142;2022-10-31T05:22:50;1.97;;;1.77;;
18100;SDS011;9177;49.156;8.142;2022-10-31T05:25:19;2.63;;;2.33;;
18100;SDS011;9177;49.156;8.142;2022-10-31T05:27:48;2.20;;;2.00;;
18100;SDS011;9177;49.156;8.142;2022-10-31T05:30:18;3.13;;;2.10;;
18100;SDS011;9177;49.156;8.142;2022-10-31T05:32:51;3.63;;;2.07;;
18100;SDS011;9177;49.156;8.142;2022-10-31T05:35:19;3.60;;;2.20;;
18100;SDS011;9177;49.156;8.142;2022-10-31T05:37:47;2.83;;;2.27;;
18100;SDS011;9177;49.156;8.142;2022-10-31T05:40:15;2.10;;;1.80;;
18100;SDS011;9177;49.156;8.142;2022-10-31T05:42:43;2.10;;;1.90;;
18100;SDS011;9177;49.156;8.142;2022-10-31T05:45:11;2.10;;;1.90;;
18100;SDS011;9177;49.156;8.142;2022-10-31T05:47:41;2.00;;;1.90;;
18100;SDS011;9177;49.156;8.142;2022-10-31T05:50:08;2.83;;;2.10;;
18100;SDS011;9177;49.156;8.142;2022-10-31T05:52:36;2.23;;;2.03;;
18100;SDS011;9177;49.156;8.142;2022-10-31T05:55:03;2.37;;;2.17;;
18100;SDS011;9177;49.156;8.142;2022-10-31T05:57:31;2.00;;;1.80;;
18100;SDS011;9177;49.156;8.142;2022-10-31T05:59:59;2.20;;;2.00;;
18100;SDS011;9177;49.156;8.142;2022-10-31T06:02:26;2.10;;;1.90;;
18100;SDS011;9177;49.156;8.142;2022-10-31T06:04:58;2.50;;;2.30;;
18100;SDS011;9177;49.156;8.142;2022-10-31T06:07:26;2.37;;;2.17;;
18100;SDS011;9177;49.156;8.142;2022-10-31T06:09:53;3.13;;;2.20;;
18100;SDS011;9177;49.156;8.142;2022-10-31T06:12:20;2.60;;;2.10;;
18100;SDS011;9177;49.156;8.142;2022-10-31T06:14:47;2.70;;;1.90;;
18100;SDS011;9177;49.156;8.142;2022-10-31T06:17:14;1.97;;;1.77;;
18100;SDS011;9177;49.156;8.142;2022-10-31T06:19:41;2.10;;;1.90;;
18100;SDS011;9177;49.156;8.142;2022-10-31T06:22:10;2.20;;;2.00;;
18100;SDS011;9177;49.156;8.142;2022-10-31T06:24:38;2.20;;;2.00;;
18100;SDS011;9177;49.156;8.142;2022-10-31T06:27:05;2.40;;;2.20;;
18100;SDS011;9177;49.156;8.142;2022-10-31T06:29:32;2.20;;;1.80;;
18100;SDS011;9177;49.156;8.142;2022-10-31T06:31:59;2.07;;;1.90;;
18100;SDS011;9177;49.156;8.142;2022-10-31T06:34:26;1.80;;;1.70;;
18100;SDS011;9177;49.156;8.142;2022-10-31T06:36:52;1.80;;;1.70;;
18100;SDS011;9177;49.156;8.142;2022-10-31T06:39:21;2.37;;;2.13;;
18100;SDS011;9177;49.156;8.142;2022-10-31T06:41:48;1.93;;;1.80;;
18100;SDS011;9177;49.156;8.142;2022-10-31T06:44:14;2.80;;;2.00;;
18100;SDS011;9177;49.156;8.142;2022-10-31T06:46:41;2.03;;;1.93;;
18100;SDS011;9177;49.156;8.142;2022-10-31T06:49:08;2.20;;;2.00;;
18100;SDS011;9177;49.156;8.142;2022-10-31T06:51:35;1.97;;;1.80;;
18100;SDS011;9177;49.156;8.142;2022-10-31T06:54:02;3.10;;;2.10;;
18100;SDS011;9177;49.156;8.142;2022-10-31T06:56:30;2.20;;;2.00;;
18100;SDS011;9177;49.156;8.142;2022-10-31T06:58:57;1.80;;;1.70;;
18100;SDS011;9177;49.156;8.142;2022-10-31T07:01:24;2.77;;;2.30;;
18100;SDS011;9177;49.156;8.142;2022-10-31T07:03:51;2.30;;;2.00;;
18100;SDS011;9177;49.156;8.142;2022-10-31T07:06:18;2.43;;;2.20;;
18100;SDS011;9177;49.156;8.142;2022-10-31T07:08:46;1.90;;;1.80;;
18100;SDS011;9177;49.156;8.142;2022-10-31T07:11:14;2.97;;;1.80;;
18100;SDS011;9177;49.156;8.142;2022-10-31T07:13:42;1.90;;;1.70;;
18100;SDS011;9177;49.156;8.142;2022-10-31T07:16:10;1.80;;;1.70;;
18100;SDS011;9177;49.156;8.142;2022-10-31T07:18:38;1.90;;;1.80;;
18100;SDS011;9177;49.156;8.142;2022-10-31T07:21:05;1.87;;;1.60;;
18100;SDS011;9177;49.156;8.142;2022-10-31T07:23:32;2.20;;;1.77;;
18100;SDS011;9177;49.156;8.142;2022-10-31T07:25:59;1.93;;;1.80;;
18100;SDS011;9177;49.156;8.142;2022-10-31T07:28:26;1.77;;;1.67;;
18100;SDS011;9177;49.156;8.142;2022-10-31T07:30:56;2.67;;;2.07;;
18100;SDS011;9177;49.156;8.142;2022-10-31T07:33:24;2.00;;;1.90;;
18100;SDS011;9177;49.156;8.142;2022-10-31T07:35:52;1.90;;;1.77;;
18100;SDS011;9177;49.156;8.142;2022-10-31T07:38:19;1.87;;;1.77;;
18100;SDS011;9177;49.156;8.142;2022-10-31T07:40:49;2.27;;;2.07;;
18100;SDS011;9177;49.156;8.142;2022-10-31T07:43:17;2.00;;;1.80;;
18100;SDS011;9177;49.156;8.142;2022-10-31T07:45:48;2.00;;;1.90;;
18100;SDS011;9177;49.156;8.142;2022-10-31T07:48:17;1.83;;;1.73;;
18100;SDS011;9177;49.156;8.142;2022-10-31T07:50:44;2.03;;;1.80;;
18100;SDS011;9177;49.156;8.142;2022-10-31T07:53:12;2.00;;;1.80;;
18100;SDS011;9177;49.156;8.142;2022-10-31T07:55:39;2.90;;;2.10;;
18100;SDS011;9177;49.156;8.142;2022-10-31T07:58:07;2.23;;;1.83;;
18100;SDS011;9177;49.156;8.142;2022-10-31T08:00:38;2.30;;;2.00;;
18100;SDS011;9177;49.156;8.142;2022-10-31T08:03:09;2.27;;;2.07;;
18100;SDS011;9177;49.156;8.142;2022-10-31T08:05:39;2.27;;;1.97;;
18100;SDS011;9177;49.156;8.142;2022-10-31T08:08:06;2.77;;;2.13;;
18100;SDS011;9177;49.156;8.142;2022-10-31T08:10:33;2.53;;;2.13;;
18100;SDS011;9177;49.156;8.142;2022-10-31T08:13:01;2.10;;;1.90;;
18100;SDS011;9177;49.156;8.142;2022-10-31T08:15:30;2.13;;;1.93;;
18100;SDS011;9177;49.156;8.142;2022-10-31T08:17:58;2.57;;;2.20;;
18100;SDS011;9177;49.156;8.142;2022-10-31T08:20:27;3.00;;;2.00;;
18100;SDS011;9177;49.156;8.142;2022-10-31T08:22:56;2.33;;;2.07;;
18100;SDS011;9177;49.156;8.142;2022-10-31T08:25:24;2.47;;;2.10;;
18100;SDS011;9177;49.156;8.142;2022-10-31T08:27:52;2.67;;;2.13;;
18100;SDS011;9177;49.156;8.142;2022-10-31T08:30:23;2.23;;;2.03;;
18100;SDS011;9177;49.156;8.142;2022-10-31T08:32:58;2.67;;;2.10;;
18100;SDS011;9177;49.156;8.142;2022-10-31T08:35:26;1.90;;;1.80;;
18100;SDS011;9177;49.156;8.142;2022-10-31T08:37:53;2.40;;;1.80;;
18100;SDS011;9177;49.156;8.142;2022-10-31T08:40:22;2.80;;;2.03;;
18100;SDS011;9177;49.156;8.142;2022-10-31T08:42:57;3.70;;;2.20;;
18100;SDS011;9177;49.156;8.142;2022-10-31T08:45:25;3.00;;;2.20;;
18100;SDS011;9177;49.156;8.142;2022-10-31T08:47:56;3.00;;;2.13;;
18100;SDS011;9177;49.156;8.142;2022-10-31T08:50:24;2.40;;;1.90;;
18100;SDS011;9177;49.156;8.142;2022-10-31T08:52:51;2.40;;;2.17;;
18100;SDS011;9177;49.156;8.142;2022-10-31T08:55:18;1.97;;;1.80;;
18100;SDS011;9177;49.156;8.142;2022-10-31T08:57:47;2.05;;;1.80;;
18100;SDS011;9177;49.156;8.142;2022-10-31T09:00:14;2.17;;;1.97;;
18100;SDS011;9177;49.156;8.142;2022-10-31T09:02:41;2.30;;;2.10;;
18100;SDS011;9177;49.156;8.142;2022-10-31T09:05:08;2.23;;;2.10;;
18100;SDS011;9177;49.156;8.142;2022-10-31T09:07:35;2.40;;;2.17;;
18100;SDS011;9177;49.156;8.142;2022-10-31T09:10:02;2.73;;;2.10;;
18100;SDS011;9177;49.156;8.142;2022-10-31T09:12:29;2.43;;;2.20;;
18100;SDS011;9177;49.156;8.142;2022-10-31T09:14:57;2.93;;;2.37;;
18100;SDS011;9177;49.156;8.142;2022-10-31T09:17:25;1.90;;;1.80;;
18100;SDS011;9177;49.156;8.142;2022-10-31T09:19:54;2.23;;;2.03;;
18100;SDS011;9177;49.156;8.142;2022-10-31T09:22:21;2.43;;;2.07;;
18100;SDS011;9177;49.156;8.142;2022-10-31T09:24:48;2.63;;;2.40;;
18100;SDS011;9177;49.156;8.142;2022-10-31T09:27:14;2.10;;;1.90;;
18100;SDS011;9177;49.156;8.142;2022-10-31T09:29:41;3.10;;;2.13;;
18100;SDS011;9177;49.156;8.142;2022-10-31T09:32:13;1.97;;;1.80;;
18100;SDS011;9177;49.156;8.142;2022-10-31T09:34:40;2.33;;;2.10;;
18100;SDS011;9177;49.156;8.142;2022-10-31T09:37:12;2.10;;;2.00;;
18100;SDS011;9177;49.156;8.142;2022-10-31T09:39:39;2.33;;;2.13;;
18100;SDS011;9177;49.156;8.142;2022-10-31T09:42:09;3.53;;;2.17;;
18100;SDS011;9177;49.156;8.142;2022-10-31T09:45:10;2.10;;;1.97;;
18100;SDS011;9177;49.156;8.142;2022-10-31T09:47:46;2.10;;;2.00;;
18100;SDS011;9177;49.156;8.142;2022-10-31T09:50:24;2.95;;;2.13;;
18100;SDS011;9177;49.156;8.142;2022-10-31T09:52:57;2.37;;;2.10;;
18100;SDS011;9177;49.156;8.142;2022-10-31T09:55:30;2.20;;;2.00;;
18100;SDS011;9177;49.156;8.142;2022-10-31T09:58:02;2.22;;;2.03;;
18100;SDS011;9177;49.156;8.142;2022-10-31T10:00:30;2.45;;;1.90;;
18100;SDS011;9177;49.156;8.142;2022-10-31T10:03:02;2.38;;;2.17;;
18100;SDS011;9177;49.156;8.142;2022-10-31T10:05:38;2.13;;;1.97;;
18100;SDS011;9177;49.156;8.142;2022-10-31T10:08:20;1.85;;;1.75;;
18100;SDS011;9177;49.156;8.142;2022-10-31T10:10:54;2.80;;;2.20;;
18100;SDS011;9177;49.156;8.142;2022-10-31T10:13:32;2.00;;;1.80;;
18100;SDS011;9177;49.156;8.142;2022-10-31T10:16:12;1.98;;;1.88;;
18100;SDS011;9177;49.156;8.142;2022-10-31T10:18:52;2.33;;;2.13;;
18100;SDS011;9177;49.156;8.142;2022-10-31T10:21:31;2.40;;;2.20;;
18100;SDS011;9177;49.156;8.142;2022-10-31T10:24:09;2.53;;;2.20;;
18100;SDS011;9177;49.156;8.142;2022-10-31T10:26:46;1.90;;;1.80;;
18100;SDS011;9177;49.156;8.142;2022-10-31T10:29:28;2.20;;;2.00;;
18100;SDS011;9177;49.156;8.142;2022-10-31T10:32:00;2.33;;;2.10;;
18100;SDS011;9177;49.156;8.142;2022-10-31T10:34:33;2.63;;;2.10;;
18100;SDS011;9177;49.156;8.142;2022-10-31T10:37:09;2.50;;;2.30;;
18100;SDS011;9177;49.156;8.142;2022-10-31T10:39:45;2.22;;;2.03;;
18100;SDS011;9177;49.156;8.142;2022-10-31T10:42:15;2.77;;;2.47;;
18100;SDS011;9177;49.156;8.142;2022-10-31T10:45:13;3.17;;;2.50;;
18100;SDS011;9177;49.156;8.142;2022-10-31T10:47:59;2.60;;;2.40;;
18100;SDS011;9177;49.156;8.142;2022-10-31T10:50:36;2.45;;;2.25;;
18100;SDS011;9177;49.156;8.142;2022-10-31T10:53:11;2.67;;;1.97;;
18100;SDS011;9177;49.156;8.142;2022-10-31T10:55:58;2.90;;;2.38;;
18100;SDS011;9177;49.156;8.142;2022-10-31T10:58:30;2.72;;;2.40;;
18100;SDS011;9177;49.156;8.142;2022-10-31T11:00:57;2.60;;;2.40;;
18100;SDS011;9177;49.156;8.142;2022-10-31T11:03:24;2.50;;;2.30;;
18100;SDS011;9177;49.156;8.142;2022-10-31T11:05:54;1.97;;;1.83;;
18100;SDS011;9177;49.156;8.142;2022-10-31T11:08:23;2.27;;;2.07;;
18100;SDS011;9177;49.156;8.142;2022-10-31T11:10:58;2.90;;;2.30;;
18100;SDS011;9177;49.156;8.142;2022-10-31T11:13:26;2.13;;;1.92;;
18100;SDS011;9177;49.156;8.142;2022-10-31T11:15:59;2.83;;;2.57;;
18100;SDS011;9177;49.156;8.142;2022-10-31T11:18:29;3.40;;;2.40;;
18100;SDS011;9177;49.156;8.142;2022-10-31T11:21:02;2.57;;;2.30;;
18100;SDS011;9177;49.156;8.142;2022-10-31T11:23:30;3.37;;;2.17;;
18100;SDS011;9177;49.156;8.142;2022-10-31T11:26:00;2.50;;;2.30;;
18100;SDS011;9177;49.156;8.142;2022-10-31T11:28:29;2.43;;;2.23;;
18100;SDS011;9177;49.156;8.142;2022-10-31T11:30:57;2.50;;;2.30;;
18100;SDS011;9177;49.156;8.142;2022-10-31T11:33:27;2.67;;;2.47;;
18100;SDS011;9177;49.156;8.142;2022-10-31T11:35:58;2.13;;;1.80;;
18100;SDS011;9177;49.156;8.142;2022-10-31T11:38:30;2.90;;;2.40;;
18100;SDS011;9177;49.156;8.142;2022-10-31T11:41:02;2.55;;;2.13;;
18100;SDS011;9177;49.156;8.142;2022-10-31T11:43:36;2.47;;;2.20;;
18100;SDS011;9177;49.156;8.142;2022-10-31T11:46:08;2.38;;;2.17;;
18100;SDS011;9177;49.156;8.142;2022-10-31T11:48:36;2.47;;;2.27;;
18100;SDS011;9177;49.156;8.142;2022-10-31T11:51:04;2.40;;;2.20;;
18100;SDS011;9177;49.156;8.142;2022-10-31T11:53:32;2.50;;;2.30;;
18100;SDS011;9177;49.156;8.142;2022-10-31T11:56:01;2.40;;;2.00;;
18100;SDS011;9177;49.156;8.142;2022-10-31T11:58:30;2.67;;;2.47;;
18100;SDS011;9177;49.156;8.142;2022-10-31T12:00:59;2.30;;;2.10;;
18100;SDS011;9177;49.156;8.142;2022-10-31T12:03:33;2.20;;;2.00;;
18100;SDS011;9177;49.156;8.142;2022-10-31T12:06:08;2.77;;;2.13;;
18100;SDS011;9177;49.156;8.142;2022-10-31T12:08:40;2.67;;;2.10;;
18100;SDS011;9177;49.156;8.142;2022-10-31T12:11:11;2.07;;;1.90;;
18100;SDS011;9177;49.156;8.142;2022-10-31T12:13:51;2.63;;;2.43;;
18100;SDS011;9177;49.156;8.142;2022-10-31T12:16:29;3.40;;;2.03;;
18100;SDS011;9177;49.156;8.142;2022-10-31T12:19:00;2.20;;;2.00;;
18100;SDS011;9177;49.156;8.142;2022-10-31T12:21:34;2.50;;;2.30;;
18100;SDS011;9177;49.156;8.142;2022-10-31T12:24:18;2.20;;;2.00;;
18100;SDS011;9177;49.156;8.142;2022-10-31T12:27:01;2.67;;;2.20;;
18100;SDS011;9177;49.156;8.142;2022-10-31T12:29:39;2.40;;;2.17;;
18100;SDS011;9177;49.156;8.142;2022-10-31T12:32:19;2.58;;;2.38;;
18100;SDS011;9177;49.156;8.142;2022-10-31T12:35:02;2.28;;;2.08;;
18100;SDS011;9177;49.156;8.142;2022-10-31T12:37:44;2.33;;;2.13;;
18100;SDS011;9177;49.156;8.142;2022-10-31T12:40:29;2.33;;;2.10;;
18100;SDS011;9177;49.156;8.142;2022-10-31T12:43:14;2.63;;;2.40;;
18100;SDS011;9177;49.156;8.142;2022-10-31T12:45:52;2.37;;;2.17;;
18100;SDS011;9177;49.156;8.142;2022-10-31T12:51:37;3.40;;;2.40;;
18100;SDS011;9177;49.156;8.142;2022-10-31T12:54:22;5.00;;;2.43;;
18100;SDS011;9177;49.156;8.142;2022-10-31T12:57:03;2.88;;;2.30;;
18100;SDS011;9177;49.156;8.142;2022-10-31T12:59:40;5.65;;;2.88;;
18100;SDS011;9177;49.156;8.142;2022-10-31T13:02:11;5.43;;;3.47;;
18100;SDS011;9177;49.156;8.142;2022-10-31T13:04:46;5.13;;;3.80;;
18100;SDS011;9177;49.156;8.142;2022-10-31T13:07:21;4.33;;;3.23;;
18100;SDS011;9177;49.156;8.142;2022-10-31T13:09:54;4.15;;;3.22;;
18100;SDS011;9177;49.156;8.142;2022-10-31T13:12:26;5.60;;;3.75;;
18100;SDS011;9177;49.156;8.142;2022-10-31T13:14:56;5.65;;;3.35;;
18100;SDS011;9177;49.156;8.142;2022-10-31T13:17:27;4.28;;;3.63;;
18100;SDS011;9177;49.156;8.142;2022-10-31T13:20:00;6.00;;;4.10;;
18100;SDS011;9177;49.156;8.142;2022-10-31T13:22:42;5.60;;;3.97;;
18100;SDS011;9177;49.156;8.142;2022-10-31T13:25:13;8.13;;;4.50;;
18100;SDS011;9177;49.156;8.142;2022-10-31T13:27:47;6.03;;;4.00;;
18100;SDS011;9177;49.156;8.142;2022-10-31T13:30:19;8.07;;;5.00;;
18100;SDS011;9177;49.156;8.142;2022-10-31T13:32:48;6.45;;;4.50;;
18100;SDS011;9177;49.156;8.142;2022-10-31T13:35:24;6.05;;;4.05;;
18100;SDS011;9177;49.156;8.142;2022-10-31T13:37:59;6.30;;;4.30;;
18100;SDS011;9177;49.156;8.142;2022-10-31T13:40:33;10.35;;;4.82;;
18100;SDS011;9177;49.156;8.142;2022-10-31T13:43:12;7.53;;;4.60;;
18100;SDS011;9177;49.156;8.142;2022-10-31T13:45:49;7.03;;;5.00;;
18100;SDS011;9177;49.156;8.142;2022-10-31T13:48:18;6.15;;;4.63;;
18100;SDS011;9177;49.156;8.142;2022-10-31T13:51:00;10.40;;;4.97;;
18100;SDS011;9177;49.156;8.142;2022-10-31T13:53:36;6.00;;;4.32;;
18100;SDS011;9177;49.156;8.142;2022-10-31T13:56:14;6.47;;;4.43;;
18100;SDS011;9177;49.156;8.142;2022-10-31T14:01:50;7.53;;;4.55;;
18100;SDS011;9177;49.156;8.142;2022-10-31T14:04:20;9.67;;;5.20;;
18100;SDS011;9177;49.156;8.142;2022-10-31T14:06:58;7.55;;;5.43;;
18100;SDS011;9177;49.156;8.142;2022-10-31T14:09:32;9.52;;;5.05;;
18100;SDS011;9177;49.156;8.142;2022-10-31T14:12:06;8.02;;;5.40;;
18100;SDS011;9177;49.156;8.142;2022-10-31T14:14:43;9.35;;;5.20;;
18100;SDS011;9177;49.156;8.142;2022-10-31T14:17:17;8.55;;;4.90;;
18100;SDS011;9177;49.156;8.142;2022-10-31T14:19:59;8.82;;;5.05;;
18100;SDS011;9177;49.156;8.142;2022-10-31T14:22:31;7.78;;;4.68;;
18100;SDS011;9177;49.156;8.142;2022-10-31T14:25:00;8.93;;;4.43;;
18100;SDS011;9177;49.156;8.142;2022-10-31T14:27:34;6.13;;;4.17;;
18100;SDS011;9177;49.156;8.142;2022-10-31T14:30:18;8.60;;;5.00;;
18100;SDS011;9177;49.156;8.142;2022-10-31T14:32:49;6.77;;;4.60;;
18100;SDS011;9177;49.156;8.142;2022-10-31T14:35:20;8.87;;;5.10;;
18100;SDS011;9177;49.156;8.142;2022-10-31T14:37:55;5.93;;;4.50;;
18100;SDS011;9177;49.156;8.142;2022-10-31T14:40:33;11.03;;;4.77;;
18100;SDS011;9177;49.156;8.142;2022-10-31T14:43:15;5.80;;;4.50;;
18100;SDS011;9177;49.156;8.142;2022-10-31T14:46:00;8.53;;;4.77;;
18100;SDS011;9177;49.156;8.142;2022-10-31T14:51:38;7.13;;;4.55;;
18100;SDS011;9177;49.156;8.142;2022-10-31T14:54:11;8.57;;;5.00;;
18100;SDS011;9177;49.156;8.142;2022-10-31T14:56:43;7.60;;;5.17;;
18100;SDS011;9177;49.156;8.142;2022-10-31T14:59:16;5.20;;;4.17;;
18100;SDS011;9177;49.156;8.142;2022-10-31T15:01:52;4.97;;;4.33;;
18100;SDS011;9177;49.156;8.142;2022-10-31T15:04:24;4.90;;;4.40;;
18100;SDS011;9177;49.156;8.142;2022-10-31T15:06:53;5.13;;;4.18;;
18100;SDS011;9177;49.156;8.142;2022-10-31T15:09:28;7.17;;;4.93;;
18100;SDS011;9177;49.156;8.142;2022-10-31T15:11:57;7.37;;;4.73;;
18100;SDS011;9177;49.156;8.142;2022-10-31T15:14:26;7.73;;;4.73;;
18100;SDS011;9177;49.156;8.142;2022-10-31T15:16:56;8.27;;;4.60;;
18100;SDS011;9177;49.156;8.142;2022-10-31T15:19:26;6.73;;;4.23;;
18100;SDS011;9177;49.156;8.142;2022-10-31T15:21:55;6.23;;;4.67;;
18100;SDS011;9177;49.156;8.142;2022-10-31T15:24:24;8.83;;;5.00;;
18100;SDS011;9177;49.156;8.142;2022-10-31T15:26:56;5.07;;;4.33;;
18100;SDS011;9177;49.156;8.142;2022-10-31T15:29:24;7.20;;;4.90;;
18100;SDS011;9177;49.156;8.142;2022-10-31T15:31:52;7.70;;;5.40;;